Time;durP1;ratioP1;P1;durP2;ratioP2;P2;SDS_P1;SDS_P2;PMS_P1;PMS_P2;Temp;Humidity;BMP_temperature;BMP_pressure;BME280_temperature;BME280_humidity;BME280_pressure;Samples;Min_cycle;Max_cycle;Signal;HPM_P1;HPM_P2
2021/08/29 00:00:29;;;;;;;6.55;4.50;;;;;;;12.04;99.49;99119.00;5050680;28;20067;-79
2021/08/29 00:02:56;;;;;;;7.97;4.95;;;;;;;11.94;100.00;99119.34;5052759;28;20056;-79
2021/08/29 00:05:23;;;;;;;5.75;3.95;;;;;;;11.91;100.00;99122.44;5059905;28;20099;-79
2021/08/29 00:07:50;;;;;;;8.30;4.35;;;;;;;11.90;100.00;99107.13;5057205;28;20045;-79
2021/08/29 00:10:18;;;;;;;7.70;5.00;;;;;;;12.08;100.00;99130.38;5051632;28;20443;-80
2021/08/29 00:12:45;;;;;;;8.30;5.07;;;;;;;11.91;100.00;99116.97;5041931;28;20102;-80
2021/08/29 00:15:22;;;;;;;7.07;4.93;;;;;;;12.04;100.00;99121.72;5054713;28;20041;-80
2021/08/29 00:17:50;;;;;;;9.00;5.72;;;;;;;12.19;100.00;99127.97;5055163;28;20049;-80
2021/08/29 00:20:17;;;;;;;22.20;6.95;;;;;;;12.27;99.94;99128.84;5052005;28;20057;-79
2021/08/29 00:22:44;;;;;;;9.93;6.13;;;;;;;12.35;99.82;99123.25;5052948;28;20191;-80
2021/08/29 00:25:11;;;;;;;7.63;5.00;;;;;;;12.08;100.00;99116.75;5051209;28;20045;-80
2021/08/29 00:27:38;;;;;;;10.40;4.97;;;;;;;12.10;100.00;99122.84;5052901;28;20135;-80
2021/08/29 00:30:05;;;;;;;7.22;4.82;;;;;;;12.06;100.00;99111.50;5051567;28;20102;-80
2021/08/29 00:32:32;;;;;;;7.85;5.38;;;;;;;12.02;100.00;99115.66;5051717;28;20047;-79
2021/08/29 00:35:00;;;;;;;7.97;5.22;;;;;;;12.13;100.00;99120.56;5054406;28;20373;-80
2021/08/29 00:37:27;;;;;;;9.80;6.18;;;;;;;12.18;100.00;99117.25;5051450;28;20098;-80
2021/08/29 00:39:54;;;;;;;12.35;5.53;;;;;;;12.12;100.00;99110.72;5060536;28;20059;-80
2021/08/29 00:42:21;;;;;;;10.57;5.63;;;;;;;12.17;100.00;99115.56;5071519;28;20106;-80
2021/08/29 00:44:47;;;;;;;12.85;5.45;;;;;;;12.21;100.00;99111.41;5061015;28;20102;-80
2021/08/29 00:47:14;;;;;;;10.23;5.70;;;;;;;12.23;100.00;99112.06;5046468;28;20164;-80
2021/08/29 00:49:42;;;;;;;9.50;5.75;;;;;;;12.17;100.00;99097.31;5042106;28;20558;-79
2021/08/29 00:52:10;;;;;;;13.60;5.80;;;;;;;12.14;100.00;99095.00;5075145;28;20449;-80
2021/08/29 00:54:38;;;;;;;10.60;5.45;;;;;;;12.22;100.00;99104.91;5073863;28;20048;-80
2021/08/29 00:57:07;;;;;;;9.88;6.57;;;;;;;12.20;100.00;99107.00;5060265;28;20125;-80
2021/08/29 00:59:36;;;;;;;9.50;5.65;;;;;;;12.17;100.00;99107.41;5055192;28;20076;-80
2021/08/29 01:02:08;;;;;;;21.88;6.70;;;;;;;12.06;100.00;99089.69;5065324;28;20087;-79
2021/08/29 01:04:44;;;;;;;9.45;5.65;;;;;;;12.18;100.00;99100.91;5064609;28;20538;-79
2021/08/29 01:07:19;;;;;;;8.00;5.35;;;;;;;12.13;100.00;99093.31;5057438;28;20044;-80
2021/08/29 01:09:51;;;;;;;8.30;5.70;;;;;;;12.14;100.00;99100.44;5074470;28;20109;-80
2021/08/29 01:12:19;;;;;;;10.43;5.47;;;;;;;12.11;100.00;99094.56;5067352;28;20049;-80
2021/08/29 01:14:49;;;;;;;8.52;4.65;;;;;;;12.19;100.00;99095.25;5056083;28;20041;-79
2021/08/29 01:17:20;;;;;;;9.20;5.72;;;;;;;12.30;100.00;99091.16;5070713;28;20091;-79
2021/08/29 01:19:57;;;;;;;7.85;5.60;;;;;;;12.21;100.00;99085.00;5054358;28;20492;-80
2021/08/29 01:22:26;;;;;;;10.70;5.55;;;;;;;12.33;100.00;99089.88;5050613;28;20049;-79
2021/08/29 01:24:54;;;;;;;6.78;4.68;;;;;;;12.17;100.00;99072.81;5071020;28;20044;-80
2021/08/29 01:27:26;;;;;;;8.88;5.20;;;;;;;12.18;100.00;99082.66;5074232;28;20055;-79
2021/08/29 01:29:56;;;;;;;12.50;6.30;;;;;;;12.19;100.00;99083.50;5069810;28;20090;-80
2021/08/29 01:32:23;;;;;;;7.70;5.40;;;;;;;12.25;100.00;99088.16;5074233;28;20492;-80
2021/08/29 01:34:50;;;;;;;7.40;5.35;;;;;;;12.16;100.00;99079.31;5069823;28;20049;-80
2021/08/29 01:37:18;;;;;;;9.02;5.80;;;;;;;12.25;100.00;99079.16;5061481;28;20053;-81
2021/08/29 01:39:46;;;;;;;9.82;6.55;;;;;;;12.20;100.00;99066.13;5061497;28;20473;-80
2021/08/29 01:42:13;;;;;;;11.07;6.18;;;;;;;12.29;100.00;99078.56;5069917;28;20053;-81
2021/08/29 01:44:41;;;;;;;7.97;6.03;;;;;;;12.36;100.00;99079.44;5060529;28;20503;-80
2021/08/29 01:47:16;;;;;;;9.98;5.90;;;;;;;12.31;100.00;99056.53;5056293;28;20057;-80
2021/08/29 01:49:43;;;;;;;9.80;5.40;;;;;;;12.20;100.00;99061.50;5059387;28;20102;-80
2021/08/29 01:52:10;;;;;;;8.40;5.82;;;;;;;12.24;100.00;99075.59;5071341;28;20094;-81
2021/08/29 01:54:38;;;;;;;10.13;5.88;;;;;;;12.25;100.00;99084.59;5066926;28;20049;-81
2021/08/29 01:57:11;;;;;;;11.40;6.30;;;;;;;12.24;100.00;99077.47;5044703;28;20103;-81
2021/08/29 01:59:38;;;;;;;9.93;6.22;;;;;;;12.23;100.00;99084.81;5073514;28;20071;-81
2021/08/29 02:02:05;;;;;;;10.57;5.93;;;;;;;12.25;100.00;99069.06;5063081;28;20090;-81
2021/08/29 02:04:35;;;;;;;9.40;6.32;;;;;;;12.17;100.00;99061.91;5053049;28;20048;-80
2021/08/29 02:07:10;;;;;;;11.93;6.13;;;;;;;12.05;100.00;99047.13;5061550;28;20075;-80
2021/08/29 02:09:40;;;;;;;9.43;6.30;;;;;;;12.10;100.00;99063.72;5057975;28;20296;-80
2021/08/29 02:12:09;;;;;;;8.00;5.75;;;;;;;12.15;100.00;99057.69;5062048;28;20079;-80
2021/08/29 02:14:41;;;;;;;13.20;7.05;;;;;;;12.11;100.00;99049.06;5053448;28;20045;-80
2021/08/29 02:17:11;;;;;;;12.93;6.93;;;;;;;12.15;100.00;99055.81;5054017;28;20053;-80
2021/08/29 02:19:40;;;;;;;9.13;6.05;;;;;;;12.11;100.00;99051.78;5054144;28;20295;-81
2021/08/29 02:22:08;;;;;;;9.13;6.10;;;;;;;12.06;100.00;99046.09;5053906;28;20049;-81
2021/08/29 02:27:23;;;;;;;10.65;6.80;;;;;;;12.15;100.00;99071.31;5069241;28;20044;-80
2021/08/29 02:29:51;;;;;;;13.68;6.30;;;;;;;12.13;100.00;99067.94;5061434;28;20053;-80
2021/08/29 02:32:18;;;;;;;10.00;6.50;;;;;;;12.06;100.00;99056.13;5063496;28;20052;-80
2021/08/29 02:34:46;;;;;;;13.00;6.57;;;;;;;12.15;100.00;99060.41;5064955;28;20044;-80
2021/08/29 02:37:13;;;;;;;11.52;6.50;;;;;;;12.18;100.00;99055.41;5062163;28;20098;-80
2021/08/29 02:39:41;;;;;;;10.77;7.03;;;;;;;12.13;100.00;99055.16;5068572;28;20252;-80
2021/08/29 02:42:09;;;;;;;10.75;6.57;;;;;;;12.21;100.00;99059.63;5058909;28;20124;-80
2021/08/29 02:44:38;;;;;;;13.35;6.93;;;;;;;12.11;100.00;99061.84;5053992;28;20118;-80
2021/08/29 02:47:06;;;;;;;11.30;6.68;;;;;;;12.16;100.00;99051.19;5053383;28;20080;-80
2021/08/29 02:49:34;;;;;;;10.63;6.45;;;;;;;12.02;100.00;99045.63;5055434;28;20055;-80
2021/08/29 02:52:03;;;;;;;10.52;6.68;;;;;;;12.15;100.00;99052.22;5067088;28;20048;-80
2021/08/29 02:54:30;;;;;;;14.43;6.88;;;;;;;12.18;100.00;99060.88;5066112;28;20082;-79
2021/08/29 02:56:59;;;;;;;11.00;6.75;;;;;;;12.02;100.00;99045.63;5063581;28;20048;-80
2021/08/29 02:59:26;;;;;;;11.18;6.63;;;;;;;12.11;100.00;99053.69;5063325;28;20040;-80
2021/08/29 03:01:53;;;;;;;11.57;7.25;;;;;;;12.18;100.00;99051.84;5068214;28;20049;-80
2021/08/29 03:04:20;;;;;;;13.95;7.53;;;;;;;12.22;100.00;99061.31;5059766;28;20108;-80
2021/08/29 03:06:47;;;;;;;11.40;7.82;;;;;;;12.26;100.00;99053.59;5057459;28;20103;-80
2021/08/29 03:09:16;;;;;;;10.82;7.45;;;;;;;12.09;100.00;99032.09;5052699;28;20049;-79
2021/08/29 03:11:42;;;;;;;11.32;6.95;;;;;;;12.16;100.00;99054.78;5067071;28;20480;-81
2021/08/29 03:14:10;;;;;;;11.52;6.88;;;;;;;12.10;100.00;99041.91;5054094;28;20049;-80
2021/08/29 03:16:37;;;;;;;12.00;7.10;;;;;;;12.17;100.00;99051.00;5070673;28;20048;-80
2021/08/29 03:19:05;;;;;;;10.55;6.78;;;;;;;12.19;100.00;99051.66;5068559;28;20049;-80
2021/08/29 03:21:32;;;;;;;12.48;7.18;;;;;;;12.15;100.00;99035.88;5048981;28;20060;-80
2021/08/29 03:23:59;;;;;;;20.48;6.88;;;;;;;12.24;100.00;99053.78;5036639;28;20044;-80
2021/08/29 03:26:28;;;;;;;11.70;7.40;;;;;;;12.13;100.00;99036.06;5050125;28;20040;-81
2021/08/29 03:28:55;;;;;;;9.35;6.45;;;;;;;12.08;100.00;99024.09;5057465;28;20507;-80
2021/08/29 03:31:22;;;;;;;12.93;7.45;;;;;;;12.17;100.00;99045.53;5062354;28;20114;-80
2021/08/29 03:33:52;;;;;;;10.77;7.10;;;;;;;12.19;100.00;99029.84;5061588;28;20053;-80
2021/08/29 03:36:22;;;;;;;;;;;;;;;12.17;100.00;99037.38;5055349;28;20047;-81
2021/08/29 03:38:50;;;;;;;14.40;7.43;;;;;;;12.25;100.00;99036.38;5053993;28;19925;-80
2021/08/29 03:41:19;;;;;;;9.98;6.65;;;;;;;12.24;100.00;99026.53;5063551;28;20098;-80
2021/08/29 03:43:47;;;;;;;11.85;6.80;;;;;;;12.18;100.00;99027.34;5059190;28;20044;-80
2021/08/29 03:46:16;;;;;;;9.88;6.78;;;;;;;12.19;100.00;99018.97;5055410;28;20045;-81
2021/08/29 03:48:43;;;;;;;10.30;6.90;;;;;;;12.28;100.00;99027.78;5051673;28;20051;-81
2021/08/29 03:51:11;;;;;;;12.07;7.25;;;;;;;12.22;100.00;99020.41;5056505;28;20106;-81
2021/08/29 03:53:38;;;;;;;10.93;7.30;;;;;;;12.28;100.00;99029.69;5060991;28;20064;-80
2021/08/29 03:56:06;;;;;;;11.00;7.93;;;;;;;12.35;100.00;99028.69;5058053;28;20507;-80
2021/08/29 03:58:35;;;;;;;11.75;7.68;;;;;;;12.32;100.00;99020.91;5058993;28;20068;-81
2021/08/29 04:01:03;;;;;;;10.63;6.90;;;;;;;12.29;100.00;99015.88;5060102;28;20049;-80
2021/08/29 04:03:30;;;;;;;11.43;7.22;;;;;;;12.35;100.00;99023.22;5051246;28;20045;-80
2021/08/29 04:05:58;;;;;;;11.65;7.65;;;;;;;12.27;100.00;99008.91;5057424;28;20111;-80
2021/08/29 04:08:29;;;;;;;13.23;8.00;;;;;;;12.28;100.00;99011.44;5057696;28;20053;-80
2021/08/29 04:11:00;;;;;;;12.43;7.30;;;;;;;12.30;100.00;99011.25;5053371;28;20106;-80
2021/08/29 04:13:28;;;;;;;10.38;7.05;;;;;;;12.34;100.00;99016.09;5062777;28;20076;-80
2021/08/29 04:15:56;;;;;;;15.88;7.25;;;;;;;12.33;100.00;99013.56;5056735;28;20045;-80
2021/08/29 04:18:24;;;;;;;12.38;8.07;;;;;;;12.38;100.00;99024.72;5059679;28;20049;-80
2021/08/29 04:20:52;;;;;;;14.73;7.82;;;;;;;12.30;100.00;99001.19;5050508;28;20366;-80
2021/08/29 04:23:19;;;;;;;12.48;7.45;;;;;;;12.35;100.00;99016.94;5057934;28;20044;-80
2021/08/29 04:25:47;;;;;;;11.43;7.30;;;;;;;12.28;100.00;98996.97;5059092;28;20052;-80
2021/08/29 04:28:14;;;;;;;15.93;6.93;;;;;;;12.29;100.00;99009.59;5066187;28;20094;-81
2021/08/29 04:30:42;;;;;;;11.27;7.32;;;;;;;12.32;100.00;98998.28;5070080;28;20052;-81
2021/08/29 04:33:09;;;;;;;11.68;7.18;;;;;;;12.41;100.00;99010.69;5047310;28;20485;-80
2021/08/29 04:35:37;;;;;;;12.30;7.32;;;;;;;12.41;100.00;99009.88;5058190;28;20056;-81
2021/08/29 04:38:04;;;;;;;13.30;7.30;;;;;;;12.29;100.00;98990.50;5056373;28;20094;-81
2021/08/29 04:40:33;;;;;;;12.35;7.63;;;;;;;12.31;100.00;98996.59;5058908;28;20052;-80
2021/08/29 04:42:59;;;;;;;13.38;7.75;;;;;;;12.38;100.00;98998.31;5055354;28;20053;-81
2021/08/29 04:45:26;;;;;;;12.55;7.90;;;;;;;12.36;100.00;98999.53;5062419;28;20056;-81
2021/08/29 04:47:53;;;;;;;14.95;7.82;;;;;;;12.32;100.00;98999.09;5055153;28;20056;-80
2021/08/29 04:50:20;;;;;;;13.43;7.85;;;;;;;12.28;100.00;98995.09;5061748;28;20052;-81
2021/08/29 04:52:48;;;;;;;12.95;8.93;;;;;;;12.28;100.00;98986.91;5055533;28;20048;-81
2021/08/29 04:55:15;;;;;;;12.10;7.72;;;;;;;12.33;100.00;98981.72;5059178;28;20110;-81
2021/08/29 04:57:42;;;;;;;12.20;7.38;;;;;;;12.45;100.00;98990.19;5053780;28;20053;-82
2021/08/29 05:00:10;;;;;;;10.50;7.13;;;;;;;12.42;100.00;98987.00;5057398;28;20056;-81
2021/08/29 05:02:37;;;;;;;11.82;7.10;;;;;;;12.39;100.00;98978.19;5057160;28;20045;-81
2021/08/29 05:05:04;;;;;;;10.45;7.13;;;;;;;12.37;100.00;98983.00;5055399;28;20056;-81
2021/08/29 05:07:30;;;;;;;13.70;7.53;;;;;;;12.42;100.00;98989.72;5064100;28;20056;-81
2021/08/29 05:09:59;;;;;;;13.10;7.05;;;;;;;12.46;100.00;98997.28;5055323;28;20044;-82
2021/08/29 05:16:07;;;;;;;10.05;6.68;;;;;;;12.38;100.00;98990.13;5025958;28;20053;-81
2021/08/29 05:18:34;;;;;;;10.15;6.45;;;;;;;12.45;100.00;99000.22;5055233;28;20045;-81
2021/08/29 05:21:02;;;;;;;10.02;6.65;;;;;;;12.47;100.00;99000.88;5059269;28;20048;-81
2021/08/29 05:23:29;;;;;;;9.65;6.80;;;;;;;12.59;100.00;99003.88;5069534;28;20496;-81
2021/08/29 05:26:03;;;;;;;9.25;6.60;;;;;;;12.52;100.00;99003.84;5058971;28;21504;-82
2021/08/29 05:28:30;;;;;;;8.80;6.43;;;;;;;12.50;100.00;98989.56;5062497;28;20049;-81
2021/08/29 05:30:56;;;;;;;9.13;5.97;;;;;;;12.40;100.00;98984.47;5067319;28;20057;-81
2021/08/29 05:33:23;;;;;;;11.30;6.50;;;;;;;12.42;100.00;98976.09;5062346;28;20045;-81
2021/08/29 05:35:53;;;;;;;10.77;7.25;;;;;;;12.59;100.00;99006.63;5073654;28;20055;-81
2021/08/29 05:38:20;;;;;;;12.48;6.32;;;;;;;12.55;100.00;98997.97;5070367;28;20045;-81
2021/08/29 05:40:47;;;;;;;11.77;6.03;;;;;;;12.56;100.00;98999.66;5064452;28;20086;-81
2021/08/29 05:43:15;;;;;;;8.38;5.82;;;;;;;12.36;100.00;98986.75;5057517;28;20114;-81
2021/08/29 05:45:41;;;;;;;11.00;5.55;;;;;;;12.42;100.00;98990.59;5074046;28;20045;-81
2021/08/29 05:48:08;;;;;;;8.27;5.75;;;;;;;12.48;100.00;98987.03;5054506;28;20056;-81
2021/08/29 05:50:35;;;;;;;9.98;6.00;;;;;;;12.48;100.00;98991.63;5051005;28;20056;-81
2021/08/29 05:53:02;;;;;;;7.55;5.53;;;;;;;12.33;100.00;98978.13;5062605;28;20047;-82
2021/08/29 05:55:29;;;;;;;8.77;5.20;;;;;;;12.29;100.00;98988.59;5063614;28;20037;-82
2021/08/29 05:58:18;;;;;;;7.45;4.97;;;;;;;12.25;100.00;98984.59;5058601;28;20055;-81
2021/08/29 06:00:55;;;;;;;8.38;5.13;;;;;;;12.21;100.00;98986.88;5046296;28;20091;-81
2021/08/29 06:03:21;;;;;;;7.75;5.30;;;;;;;12.22;100.00;98987.72;5054343;28;20049;-80
2021/08/29 06:05:48;;;;;;;6.80;4.47;;;;;;;12.18;100.00;98990.00;5071281;22;20037;-82
2021/08/29 06:08:15;;;;;;;9.07;4.93;;;;;;;12.26;100.00;98983.56;5050692;28;20050;-81
2021/08/29 06:10:43;;;;;;;6.70;4.15;;;;;;;12.32;100.00;98990.94;5060894;28;20045;-81
2021/08/29 06:13:10;;;;;;;7.75;5.20;;;;;;;12.39;100.00;98990.97;5073606;28;20040;-82
2021/08/29 06:15:38;;;;;;;6.55;4.38;;;;;;;12.44;100.00;99004.00;5060848;28;20122;-82
2021/08/29 06:18:10;;;;;;;6.40;3.55;;;;;;;12.28;100.00;98989.63;5054226;28;20045;-81
2021/08/29 06:20:39;;;;;;;4.45;3.50;;;;;;;12.32;100.00;98990.94;5058420;28;20120;-82
2021/08/29 06:23:06;;;;;;;4.63;2.67;;;;;;;12.30;100.00;98975.81;5053926;28;20049;-82
2021/08/29 06:25:32;;;;;;;4.75;2.97;;;;;;;12.46;100.00;98996.47;5054456;28;20049;-80
2021/08/29 06:27:59;;;;;;;5.65;2.90;;;;;;;12.42;100.00;98987.00;5070697;28;20049;-80
2021/08/29 06:30:26;;;;;;;5.00;3.28;;;;;;;12.54;100.00;98991.69;5040048;28;20088;-82
2021/08/29 06:32:54;;;;;;;3.17;2.53;;;;;;;12.57;100.00;98998.63;5033950;28;20049;-80
2021/08/29 06:35:21;;;;;;;4.68;2.78;;;;;;;12.49;100.00;98980.53;5034262;28;20390;-80
2021/08/29 06:37:48;;;;;;;7.55;3.63;;;;;;;12.64;100.00;98991.31;5034410;28;20052;-81
2021/08/29 06:40:15;;;;;;;3.90;3.10;;;;;;;12.56;100.00;98983.31;5034143;28;20477;-80
2021/08/29 06:42:42;;;;;;;3.65;2.80;;;;;;;12.60;100.00;98972.81;5051274;28;20044;-81
2021/08/29 06:45:09;;;;;;;2.97;2.22;;;;;;;12.63;100.00;98972.41;5068034;28;20087;-81
2021/08/29 06:47:36;;;;;;;3.65;2.90;;;;;;;12.91;100.00;98991.41;5073665;28;20052;-80
2021/08/29 06:50:06;;;;;;;3.85;2.50;;;;;;;12.79;100.00;98980.25;5061842;28;20036;-80
2021/08/29 06:52:33;;;;;;;2.53;1.92;;;;;;;12.84;100.00;98990.53;5037648;28;20484;-80
2021/08/29 06:55:00;;;;;;;3.30;2.08;;;;;;;12.69;100.00;98983.38;5054997;28;20102;-80
2021/08/29 06:57:27;;;;;;;4.63;1.70;;;;;;;12.73;100.00;98984.63;5062158;28;20492;-80
2021/08/29 06:59:54;;;;;;;2.65;1.63;;;;;;;12.73;100.00;98989.25;5057362;28;20045;-80
2021/08/29 07:05:01;;;;;;;2.00;1.70;;;;;;;12.78;100.00;98994.94;5049540;28;20885;-80
2021/08/29 07:07:32;;;;;;;2.38;2.10;;;;;;;12.79;100.00;98987.59;5055555;28;20052;-82
2021/08/29 07:10:11;;;;;;;2.60;1.85;;;;;;;12.85;100.00;98994.97;5049729;28;20404;-82
2021/08/29 07:12:38;;;;;;;3.30;1.98;;;;;;;12.69;100.00;98977.91;5052935;28;20045;-82
2021/08/29 07:15:15;;;;;;;2.08;1.55;;;;;;;12.91;100.00;98986.78;5051545;28;20041;-81
2021/08/29 07:17:45;;;;;;;3.47;1.90;;;;;;;12.89;100.00;98983.44;5051131;28;20048;-82
2021/08/29 07:20:14;;;;;;;2.03;1.80;;;;;;;12.87;100.00;98982.81;5054896;28;20451;-81
2021/08/29 07:22:42;;;;;;;1.70;1.60;;;;;;;12.84;100.00;98988.69;5046067;28;20048;-81
2021/08/29 07:25:10;;;;;;;1.50;1.40;;;;;;;12.79;100.00;98993.06;5046598;28;20421;-82
2021/08/29 07:27:51;;;;;;;2.15;1.45;;;;;;;12.87;100.00;98982.81;5061858;28;20080;-82
2021/08/29 07:30:18;;;;;;;1.77;1.20;;;;;;;12.75;100.00;98978.97;5048740;28;20069;-82
2021/08/29 07:32:45;;;;;;;1.63;1.50;;;;;;;12.86;100.00;98983.84;5052858;28;20037;-81
2021/08/29 07:35:36;;;;;;;1.65;1.33;;;;;;;12.72;100.00;98977.50;5044953;28;20051;-82
2021/08/29 07:38:29;;;;;;;2.13;1.60;;;;;;;12.58;100.00;98975.75;5049637;28;20056;-82
2021/08/29 07:40:56;;;;;;;1.92;1.27;;;;;;;12.44;100.00;98980.31;5058850;28;20044;-82
2021/08/29 07:43:30;;;;;;;2.10;1.30;;;;;;;12.54;100.00;98991.69;5055565;28;20051;-82
2021/08/29 07:46:03;;;;;;;1.63;1.30;;;;;;;12.68;100.00;98998.03;5052184;28;20538;-82
2021/08/29 07:48:30;;;;;;;1.45;1.25;;;;;;;12.80;100.00;98987.41;5052803;28;20056;-82
2021/08/29 07:51:00;;;;;;;1.40;1.30;;;;;;;12.76;100.00;98983.38;5052071;28;20057;-82
2021/08/29 07:53:28;;;;;;;;;;;;;;;12.87;100.00;99003.78;5049897;28;20451;-82
2021/08/29 07:55:58;;;;;;;2.00;1.48;;;;;;;12.84;100.00;98988.69;5058915;28;19974;-82
2021/08/29 07:58:28;;;;;;;1.40;1.30;;;;;;;12.92;100.00;98987.66;5061111;28;20112;-81
2021/08/29 08:00:57;;;;;;;1.17;1.08;;;;;;;13.01;100.00;99002.78;5058382;28;20758;-81
2021/08/29 08:03:29;;;;;;;2.03;0.98;;;;;;;13.09;100.00;99004.50;5066661;28;20052;-82
2021/08/29 08:06:06;;;;;;;1.27;1.08;;;;;;;13.04;100.00;98988.75;5068244;28;20056;-81
2021/08/29 08:08:47;;;;;;;1.15;1.05;;;;;;;12.93;100.00;98979.25;5065465;28;20074;-82
2021/08/29 08:11:25;;;;;;;1.27;0.95;;;;;;;13.20;100.00;98982.06;5058850;28;20055;-81
2021/08/29 08:14:34;;;;;;;0.80;0.75;;;;;;;13.22;100.00;98979.13;5059179;28;20122;-82
2021/08/29 08:17:04;;;;;;;4.60;2.50;;;;;;;13.62;100.00;99001.06;5028086;28;20059;-82
2021/08/29 08:19:31;;;;;;;1.40;1.00;;;;;;;13.61;100.00;98993.94;5053941;28;20078;-82
2021/08/29 08:22:05;;;;;;;1.20;0.80;;;;;;;13.48;100.00;98991.19;5049201;28;20052;-82
2021/08/29 08:24:49;;;;;;;0.80;0.80;;;;;;;13.44;100.00;99004.41;5064463;28;20071;-81
2021/08/29 08:27:16;;;;;;;0.75;0.70;;;;;;;13.15;100.00;98991.91;5041747;28;20476;-81
2021/08/29 08:29:46;;;;;;;0.95;0.65;;;;;;;13.42;100.00;98990.13;5048475;28;20049;-82
2021/08/29 08:32:17;;;;;;;1.25;1.02;;;;;;;13.52;100.00;98992.44;5051343;28;20391;-82
2021/08/29 08:34:53;;;;;;;1.38;1.15;;;;;;;13.46;100.00;98988.66;5063444;28;20147;-82
2021/08/29 08:43:26;;;;;;;1.00;0.70;;;;;;;13.59;100.00;98988.69;4976448;28;19948;-82
2021/08/29 08:45:54;;;;;;;0.70;0.70;;;;;;;13.59;100.00;98983.22;5050808;28;20063;-82
2021/08/29 08:51:13;;;;;;;0.65;0.65;;;;;;;13.59;100.00;98976.91;5054903;28;20067;-82
2021/08/29 08:53:43;;;;;;;1.45;0.57;;;;;;;13.83;100.00;98996.44;5057120;28;20059;-81
2021/08/29 08:56:10;;;;;;;0.40;0.40;;;;;;;13.98;100.00;98977.94;5061611;28;20052;-81
2021/08/29 08:58:41;;;;;;;1.90;0.75;;;;;;;13.96;100.00;98974.59;5060657;28;20455;-82
2021/08/29 09:01:15;;;;;;;0.60;0.60;;;;;;;13.99;100.00;98982.38;5055609;28;20421;-82
2021/08/29 09:03:45;;;;;;;0.60;0.60;;;;;;;14.18;100.00;98982.53;5055408;28;20053;-82
2021/08/29 09:06:12;;;;;;;0.50;0.50;;;;;;;14.40;100.00;98986.69;5066106;28;20110;-83
2021/08/29 09:08:57;;;;;;;0.60;0.60;;;;;;;14.40;100.00;98964.00;5109136;22;20510;-82
2021/08/29 09:11:34;;;;;;;1.60;0.70;;;;;;;14.59;100.00;98993.19;5075048;28;20477;-82
2021/08/29 09:14:10;;;;;;;0.73;0.65;;;;;;;14.55;100.00;98997.41;5074537;28;20056;-82
2021/08/29 09:16:52;;;;;;;0.60;0.60;;;;;;;14.46;100.00;98983.09;5068613;28;20044;-82
2021/08/29 09:19:42;;;;;;;0.90;0.60;;;;;;;14.48;100.00;98991.97;5073255;28;20071;-82
2021/08/29 09:22:09;;;;;;;0.95;0.70;;;;;;;14.52;100.00;98986.88;5075360;28;20407;-82
2021/08/29 09:24:59;;;;;;;0.40;0.40;;;;;;;14.37;100.00;98980.84;5077136;28;20052;-82
2021/08/29 09:27:25;;;;;;;0.68;0.43;;;;;;;14.40;100.00;98973.03;5074684;28;20044;-81
2021/08/29 09:29:54;;;;;;;1.33;0.77;;;;;;;14.44;100.00;98977.03;5071608;28;20424;-82
2021/08/29 09:32:21;;;;;;;0.50;0.50;;;;;;;14.34;100.00;98976.63;5054736;28;20071;-82
2021/08/29 09:35:04;;;;;;;0.50;0.50;;;;;;;14.46;100.00;98983.09;5054972;28;20055;-83
2021/08/29 09:37:38;;;;;;;0.60;0.60;;;;;;;14.42;100.00;98992.81;5054750;28;20041;-82
2021/08/29 09:40:28;;;;;;;0.40;0.40;;;;;;;14.51;100.00;98987.94;5055941;28;20621;-82
2021/08/29 09:43:12;;;;;;;0.50;0.50;;;;;;;14.50;100.00;98981.63;5050469;28;20068;-83
2021/08/29 09:45:42;;;;;;;0.47;0.47;;;;;;;14.37;100.00;98967.16;5054619;28;20049;-83
2021/08/29 09:48:09;;;;;;;;;;;;;;;14.38;100.00;98996.16;5055588;28;20168;-83
2021/08/29 09:51:30;;;;;;;0.30;0.30;;;;;;;14.47;100.00;98997.66;5056805;28;19921;-82
2021/08/29 09:53:57;;;;;;;0.30;0.30;;;;;;;14.58;100.00;98993.41;5019814;28;20540;-82
2021/08/29 09:56:27;;;;;;;0.55;0.45;;;;;;;14.50;100.00;98964.38;5054236;28;20045;-81
2021/08/29 09:58:57;;;;;;;0.20;0.20;;;;;;;14.81;100.00;98992.91;5054735;28;20044;-82
2021/08/29 10:01:36;;;;;;;;;;;;;;;14.73;100.00;98979.50;5056759;28;20131;-81
2021/08/29 10:04:17;;;;;;;0.57;0.35;;;;;;;14.65;100.00;98966.91;5048226;28;19921;-82
2021/08/29 10:06:44;;;;;;;0.55;0.40;;;;;;;14.77;99.91;98981.56;5055117;28;20162;-82
2021/08/29 10:09:25;;;;;;;0.40;0.40;;;;;;;14.87;100.00;98975.63;5054070;28;20056;-82
2021/08/29 10:11:56;;;;;;;0.40;0.40;;;;;;;14.92;100.00;98972.22;5054259;28;20408;-82
2021/08/29 10:14:24;;;;;;;0.40;0.35;;;;;;;14.99;100.00;98984.81;5053778;28;20049;-82
2021/08/29 10:16:56;;;;;;;0.50;0.43;;;;;;;15.02;100.00;98970.72;5054306;28;20052;-81
2021/08/29 10:19:27;;;;;;;2.15;1.23;;;;;;;14.81;100.00;98960.09;5054077;28;20396;-83
2021/08/29 10:22:12;;;;;;;2.10;1.52;;;;;;;14.98;99.88;98982.31;5055112;28;20470;-82
2021/08/29 10:24:40;;;;;;;0.57;0.43;;;;;;;14.85;97.54;98975.00;5053358;28;20059;-82
2021/08/29 10:27:10;;;;;;;0.35;0.35;;;;;;;14.82;100.00;98969.97;5053945;28;20045;-83
2021/08/29 10:29:45;;;;;;;0.43;0.30;;;;;;;15.00;100.00;98980.22;5054725;28;20451;-82
2021/08/29 10:32:25;;;;;;;0.22;0.22;;;;;;;14.97;100.00;98983.38;5054138;28;20048;-83
2021/08/29 10:34:53;;;;;;;0.30;0.30;;;;;;;15.02;98.75;98975.34;5054121;28;20045;-83
2021/08/29 10:37:21;;;;;;;0.95;0.68;;;;;;;15.03;99.86;98957.88;5054159;28;20060;-83
2021/08/29 10:39:50;;;;;;;7.00;2.72;;;;;;;15.32;98.05;98966.53;5052964;28;20063;-83
2021/08/29 10:42:18;;;;;;;0.85;0.75;;;;;;;15.47;96.70;98979.94;5051902;28;20051;-83
2021/08/29 10:44:47;;;;;;;2.45;1.95;;;;;;;15.22;96.72;98973.34;5052000;28;20052;-82
2021/08/29 10:47:17;;;;;;;0.50;0.50;;;;;;;15.24;98.65;98966.81;5051701;28;20045;-82
2021/08/29 10:50:02;;;;;;;0.20;0.20;;;;;;;15.26;97.62;98967.44;5052323;28;20118;-83
2021/08/29 10:52:31;;;;;;;0.30;0.30;;;;;;;15.35;96.29;98945.03;5051926;28;20073;-82
2021/08/29 10:55:02;;;;;;;0.20;0.20;;;;;;;15.57;99.60;98964.69;5052368;28;20053;-82
2021/08/29 10:57:33;;;;;;;0.15;0.10;;;;;;;15.49;96.08;98964.09;5050031;28;20049;-82
2021/08/29 11:00:12;;;;;;;0.20;0.20;;;;;;;15.62;95.19;98955.78;5052247;28;20085;-83
2021/08/29 11:02:45;;;;;;;0.60;0.20;;;;;;;15.69;98.74;98959.31;5051688;28;20076;-83
2021/08/29 11:05:15;;;;;;;2.65;0.17;;;;;;;15.60;95.97;98946.09;5051415;28;20045;-83
2021/08/29 11:07:50;;;;;;;0.10;0.10;;;;;;;15.82;93.97;98958.41;5051835;28;20163;-82
2021/08/29 11:10:43;;;;;;;0.75;0.55;;;;;;;15.79;97.25;98960.75;5051944;28;20072;-83
2021/08/29 11:13:42;;;;;;;0.20;0.20;;;;;;;15.74;94.36;98970.44;5051754;28;20455;-83
2021/08/29 11:16:25;;;;;;;0.40;0.20;;;;;;;15.44;97.04;98951.06;5050727;28;20404;-83
2021/08/29 11:19:17;;;;;;;0.20;0.20;;;;;;;15.26;98.04;98975.66;5043312;28;20041;-83
2021/08/29 11:22:29;;;;;;;0.90;0.30;;;;;;;15.11;100.00;98949.38;5051676;28;20040;-84
2021/08/29 11:25:02;;;;;;;0.80;0.80;;;;;;;15.16;100.00;98957.81;5051455;28;20041;-83
2021/08/29 11:28:00;;;;;;;2.28;1.17;;;;;;;15.21;100.00;98955.22;5051836;28;20056;-84
2021/08/29 11:30:42;;;;;;;0.50;0.50;;;;;;;15.09;100.00;98969.84;5040854;28;20387;-84
2021/08/29 11:33:11;;;;;;;2.80;0.43;;;;;;;15.01;100.00;98951.78;5041781;28;20400;-83
2021/08/29 11:35:44;;;;;;;0.85;0.70;;;;;;;14.89;100.00;98970.78;5051320;28;20048;-83
2021/08/29 11:38:13;;;;;;;1.45;0.70;;;;;;;14.92;100.00;98958.53;5052108;28;20063;-83
2021/08/29 11:40:57;;;;;;;0.60;0.60;;;;;;;14.96;100.00;98959.78;5051129;28;20056;-83
2021/08/29 11:43:38;;;;;;;0.30;0.30;;;;;;;14.95;100.00;98966.31;5045821;28;20049;-83
2021/08/29 11:46:14;;;;;;;6.15;4.10;;;;;;;14.92;100.00;98958.53;5049842;28;20114;-83
2021/08/29 11:48:53;;;;;;;1.33;1.17;;;;;;;14.79;99.97;98952.09;5050829;28;20052;-83
2021/08/29 11:51:31;;;;;;;0.85;0.82;;;;;;;14.79;100.00;98946.63;5050868;28;20041;-83
2021/08/29 11:53:59;;;;;;;0.52;0.40;;;;;;;14.77;100.00;98948.75;5048963;28;20088;-83
2021/08/29 11:56:30;;;;;;;1.00;0.70;;;;;;;14.77;100.00;98962.41;5051809;28;20475;-84
2021/08/29 11:59:00;;;;;;;1.95;1.30;;;;;;;14.77;100.00;98962.41;5050839;28;20103;-83